createdAt,value
2018-06-08T00:00:43.451Z,1007.03
2018-06-08T00:01:43.435Z,1007.01
2018-06-08T00:02:43.440Z,1007.04
2018-06-08T00:03:43.426Z,1007.04
2018-06-08T00:04:43.430Z,1007.05
2018-06-08T00:05:43.424Z,1007.04
2018-06-08T00:06:43.422Z,1007.01
2018-06-08T00:07:43.418Z,1007.04
2018-06-08T00:08:43.416Z,1007.05
2018-06-08T00:09:43.409Z,1007.04
2018-06-08T00:10:43.406Z,1007.06
2018-06-08T00:11:43.405Z,1007.06
2018-06-08T00:12:43.403Z,1007.06
2018-06-08T00:13:43.424Z,1007.04
2018-06-08T00:14:43.398Z,1007.06
2018-06-08T00:15:43.391Z,1007.06
2018-06-08T00:16:43.388Z,1007.07
2018-06-08T00:17:43.382Z,1007.02
2018-06-08T00:18:43.382Z,1007.02
2018-06-08T00:19:43.381Z,1007.01
2018-06-08T00:20:43.379Z,1006.98
2018-06-08T00:21:43.371Z,1006.99
2018-06-08T00:22:43.368Z,1006.96
2018-06-08T00:23:43.363Z,1006.92
2018-06-08T00:24:43.365Z,1006.89
2018-06-08T00:25:43.358Z,1006.90
2018-06-08T00:26:43.360Z,1006.88
2018-06-08T00:27:43.352Z,1006.88
2018-06-08T00:28:43.346Z,1006.90
2018-06-08T00:29:43.347Z,1006.94
2018-06-08T00:30:43.337Z,1006.94
2018-06-08T00:31:43.335Z,1006.97
2018-06-08T00:32:43.333Z,1006.99
2018-06-08T00:33:43.331Z,1006.96
2018-06-08T00:34:43.328Z,1006.95
2018-06-08T00:35:43.323Z,1006.95
2018-06-08T00:36:43.319Z,1006.93
2018-06-08T00:37:43.318Z,1006.90
2018-06-08T00:38:43.313Z,1006.90
2018-06-08T00:39:43.311Z,1006.90
2018-06-08T00:40:43.309Z,1006.92
2018-06-08T00:41:43.306Z,1006.92
2018-06-08T00:42:43.303Z,1006.92
2018-06-08T00:43:43.293Z,1006.94
2018-06-08T00:44:43.301Z,1006.97
2018-06-08T00:45:43.289Z,1006.93
2018-06-08T00:46:43.292Z,1006.95
2018-06-08T00:47:43.282Z,1007.00
2018-06-08T00:48:43.279Z,1006.99
2018-06-08T00:49:43.275Z,1006.98
2018-06-08T00:50:43.269Z,1006.95
2018-06-08T00:51:43.265Z,1006.95
2018-06-08T00:52:43.259Z,1006.94
2018-06-08T00:53:43.262Z,1006.93
2018-06-08T00:54:43.257Z,1006.87
2018-06-08T00:55:43.255Z,1006.84
2018-06-08T00:56:43.247Z,1006.82
2018-06-08T00:57:43.242Z,1006.80
2018-06-08T00:58:44.116Z,1006.80
2018-06-08T00:59:43.236Z,1006.82
2018-06-08T01:00:43.239Z,1006.85
2018-06-08T01:01:43.229Z,1006.81
2018-06-08T01:02:43.227Z,1006.87
2018-06-08T01:03:43.223Z,1006.84
2018-06-08T01:04:44.119Z,1006.83
2018-06-08T01:05:44.121Z,1006.80
2018-06-08T01:06:43.208Z,1006.80
2018-06-08T01:07:43.209Z,1006.75
2018-06-08T01:08:43.210Z,1006.75
2018-06-08T01:09:43.199Z,1006.75
2018-06-08T01:10:43.194Z,1006.75
2018-06-08T01:11:43.191Z,1006.78
2018-06-08T01:12:43.187Z,1006.77
2018-06-08T01:13:43.182Z,1006.80
2018-06-08T01:14:43.180Z,1006.83
2018-06-08T01:15:43.181Z,1006.84
2018-06-08T01:16:43.177Z,1006.79
2018-06-08T01:17:43.166Z,1006.83
2018-06-08T01:18:43.171Z,1006.82
2018-06-08T01:19:43.163Z,1006.77
2018-06-08T01:20:43.157Z,1006.76
2018-06-08T01:21:43.162Z,1006.77
2018-06-08T01:22:43.159Z,1006.77
2018-06-08T01:23:43.148Z,1006.74
2018-06-08T01:24:43.144Z,1006.75
2018-06-08T01:25:43.134Z,1006.72
2018-06-08T01:26:43.135Z,1006.75
2018-06-08T01:27:43.130Z,1006.77
2018-06-08T01:28:43.128Z,1006.73
2018-06-08T01:29:43.127Z,1006.77
2018-06-08T01:30:43.121Z,1006.75
2018-06-08T01:31:43.117Z,1006.75
2018-06-08T01:32:43.111Z,1006.73
2018-06-08T01:33:43.109Z,1006.69
2018-06-08T01:34:43.107Z,1006.74
2018-06-08T01:35:43.114Z,1006.76
2018-06-08T01:36:43.098Z,1006.76
2018-06-08T01:37:43.149Z,1006.76
2018-06-08T01:38:43.087Z,1006.81
2018-06-08T01:39:43.085Z,1006.78
2018-06-08T01:40:43.080Z,1006.77
2018-06-08T01:41:43.079Z,1006.78
2018-06-08T01:42:43.074Z,1006.80
2018-06-08T01:43:43.066Z,1006.78
2018-06-08T01:44:43.067Z,1006.77
2018-06-08T01:45:43.059Z,1006.78
2018-06-08T01:46:43.056Z,1006.75
2018-06-08T01:47:43.050Z,1006.81
2018-06-08T01:48:43.069Z,1006.80
2018-06-08T01:49:43.045Z,1006.78
2018-06-08T01:50:43.042Z,1006.82
2018-06-08T01:51:43.040Z,1006.78
2018-06-08T01:52:43.050Z,1006.78
2018-06-08T01:53:43.066Z,1006.77
2018-06-08T01:54:43.024Z,1006.78
2018-06-08T01:55:43.021Z,1006.75
2018-06-08T01:56:43.021Z,1006.76
2018-06-08T01:57:43.032Z,1006.77
2018-06-08T01:58:43.013Z,1006.79
2018-06-08T01:59:43.004Z,1006.71
2018-06-08T02:00:43.058Z,1006.78
2018-06-08T02:01:42.996Z,1006.77
2018-06-08T02:02:43.026Z,1006.77
2018-06-08T02:03:43.026Z,1006.79
2018-06-08T02:04:43.006Z,1006.78
2018-06-08T02:05:42.984Z,1006.76
2018-06-08T02:06:42.977Z,1006.78
2018-06-08T02:07:42.973Z,1006.73
2018-06-08T02:08:42.981Z,1006.73
2018-06-08T02:09:42.966Z,1006.72
2018-06-08T02:10:42.968Z,1006.73
2018-06-08T02:11:42.959Z,1006.72
2018-06-08T02:12:42.961Z,1006.70
2018-06-08T02:13:42.952Z,1006.73
2018-06-08T02:14:42.949Z,1006.75
2018-06-08T02:15:42.947Z,1006.74
2018-06-08T02:16:42.943Z,1006.74
2018-06-08T02:17:42.938Z,1006.77
2018-06-08T02:18:42.935Z,1006.75
2018-06-08T02:19:42.932Z,1006.77
2018-06-08T02:20:42.923Z,1006.76
2018-06-08T02:21:42.920Z,1006.77
2018-06-08T02:22:42.931Z,1006.76
2018-06-08T02:23:42.917Z,1006.75
2018-06-08T02:24:42.913Z,1006.79
2018-06-08T02:25:42.904Z,1006.75
2018-06-08T02:26:42.904Z,1006.76
2018-06-08T02:27:42.897Z,1006.76
2018-06-08T02:28:42.893Z,1006.75
2018-06-08T02:29:42.888Z,1006.74
2018-06-08T02:30:42.889Z,1006.77
2018-06-08T02:31:42.886Z,1006.73
2018-06-08T02:32:42.882Z,1006.78
2018-06-08T02:33:42.878Z,1006.78
2018-06-08T02:34:42.872Z,1006.77
2018-06-08T02:35:42.868Z,1006.75
2018-06-08T02:36:42.874Z,1006.78
2018-06-08T02:37:42.869Z,1006.76
2018-06-08T02:38:42.866Z,1006.73
2018-06-08T02:39:42.855Z,1006.76
2018-06-08T02:40:42.854Z,1006.79
2018-06-08T02:41:42.843Z,1006.77
2018-06-08T02:42:42.840Z,1006.78
2018-06-08T02:43:42.841Z,1006.78
2018-06-08T02:44:42.836Z,1006.77
2018-06-08T02:45:42.833Z,1006.80
2018-06-08T02:46:42.834Z,1006.83
2018-06-08T02:47:42.825Z,1006.83
2018-06-08T02:48:42.820Z,1006.81
2018-06-08T02:49:42.816Z,1006.81
2018-06-08T02:50:42.816Z,1006.80
2018-06-08T02:51:42.825Z,1006.79
2018-06-08T02:52:42.806Z,1006.82
2018-06-08T02:53:42.801Z,1006.79
2018-06-08T02:54:42.797Z,1006.77
2018-06-08T02:55:42.797Z,1006.77
2018-06-08T02:56:42.794Z,1006.78
2018-06-08T02:57:42.796Z,1006.78
2018-06-08T02:58:42.786Z,1006.80
2018-06-08T02:59:42.782Z,1006.79
2018-06-08T03:00:42.781Z,1006.77
2018-06-08T03:01:42.772Z,1006.81
2018-06-08T03:02:42.768Z,1006.82
2018-06-08T03:03:42.763Z,1006.80
2018-06-08T03:04:42.762Z,1006.78
2018-06-08T03:05:42.764Z,1006.79
2018-06-08T03:06:42.756Z,1006.76
2018-06-08T03:07:42.753Z,1006.77
2018-06-08T03:08:42.746Z,1006.73
2018-06-08T03:09:42.741Z,1006.72
2018-06-08T03:10:42.738Z,1006.71
2018-06-08T03:11:42.733Z,1006.76
2018-06-08T03:12:42.733Z,1006.73
2018-06-08T03:13:42.731Z,1006.76
2018-06-08T03:14:42.725Z,1006.75
2018-06-08T03:15:42.723Z,1006.71
2018-06-08T03:16:42.715Z,1006.76
2018-06-08T03:17:42.712Z,1006.76
2018-06-08T03:18:42.706Z,1006.74
2018-06-08T03:19:42.704Z,1006.74
2018-06-08T03:20:42.711Z,1006.79
2018-06-08T03:21:42.700Z,1006.74
2018-06-08T03:22:42.696Z,1006.75
2018-06-08T03:23:42.691Z,1006.76
2018-06-08T03:24:42.687Z,1006.74
2018-06-08T03:25:42.681Z,1006.71
2018-06-08T03:26:42.684Z,1006.75
2018-06-08T03:27:42.678Z,1006.73
2018-06-08T03:28:42.669Z,1006.71
2018-06-08T03:29:42.664Z,1006.70
2018-06-08T03:30:42.668Z,1006.72
2018-06-08T03:31:42.658Z,1006.70
2018-06-08T03:32:42.671Z,1006.73
2018-06-08T03:33:42.654Z,1006.74
2018-06-08T03:34:42.657Z,1006.72
2018-06-08T03:35:42.648Z,1006.73
2018-06-08T03:36:42.641Z,1006.73
2018-06-08T03:37:42.637Z,1006.71
2018-06-08T03:38:42.644Z,1006.72
2018-06-08T03:39:42.629Z,1006.72
2018-06-08T03:40:42.627Z,1006.71
2018-06-08T03:41:42.630Z,1006.75
2018-06-08T03:42:42.625Z,1006.66
2018-06-08T03:43:42.618Z,1006.70
2018-06-08T03:44:42.613Z,1006.67
2018-06-08T03:45:42.608Z,1006.67
2018-06-08T03:46:42.604Z,1006.69
2018-06-08T03:47:42.605Z,1006.68
2018-06-08T03:48:42.602Z,1006.70
2018-06-08T03:49:42.596Z,1006.69
2018-06-08T03:50:42.593Z,1006.65
2018-06-08T03:51:42.585Z,1006.67
2018-06-08T03:52:42.582Z,1006.65
2018-06-08T03:53:42.581Z,1006.62
2018-06-08T03:54:42.577Z,1006.65
2018-06-08T03:55:42.573Z,1006.60
2018-06-08T03:56:42.571Z,1006.64
2018-06-08T03:57:42.563Z,1006.63
2018-06-08T03:58:42.559Z,1006.64
2018-06-08T03:59:42.556Z,1006.65
2018-06-08T04:00:42.558Z,1006.67
2018-06-08T04:01:42.551Z,1006.70
2018-06-08T04:02:42.548Z,1006.67
2018-06-08T04:03:42.545Z,1006.70
2018-06-08T04:04:42.540Z,1006.70
2018-06-08T04:05:42.533Z,1006.75
2018-06-08T04:06:42.530Z,1006.74
2018-06-08T04:07:42.534Z,1006.76
2018-06-08T04:08:42.527Z,1006.71
2018-06-08T04:09:42.551Z,1006.73
2018-06-08T04:10:42.520Z,1006.74
2018-06-08T04:11:42.557Z,1006.76
2018-06-08T04:12:42.509Z,1006.75
2018-06-08T04:13:42.509Z,1006.73
2018-06-08T04:14:42.503Z,1006.75
2018-06-08T04:15:42.503Z,1006.73
2018-06-08T04:16:42.500Z,1006.75
2018-06-08T04:17:42.499Z,1006.75
2018-06-08T04:18:42.491Z,1006.76
2018-06-08T04:19:42.483Z,1006.77
2018-06-08T04:20:42.484Z,1006.76
2018-06-08T04:21:42.512Z,1006.74
2018-06-08T04:22:42.475Z,1006.73
2018-06-08T04:23:42.477Z,1006.80
2018-06-08T04:24:42.470Z,1006.80
2018-06-08T04:25:42.477Z,1006.77
2018-06-08T04:26:42.460Z,1006.80
2018-06-08T04:27:42.458Z,1006.82
2018-06-08T04:28:42.451Z,1006.81
2018-06-08T04:29:42.454Z,1006.84
2018-06-08T04:30:42.448Z,1006.86
2018-06-08T04:31:42.444Z,1006.86
2018-06-08T04:32:42.481Z,1006.84
2018-06-08T04:33:42.435Z,1006.89
2018-06-08T04:34:42.431Z,1006.83
2018-06-08T04:35:42.431Z,1006.86
2018-06-08T04:36:42.430Z,1006.91
2018-06-08T04:37:42.425Z,1006.93
2018-06-08T04:38:42.420Z,1006.93
2018-06-08T04:39:42.417Z,1006.95
2018-06-08T04:40:42.408Z,1006.93
2018-06-08T04:41:42.410Z,1006.96
2018-06-08T04:42:42.402Z,1006.94
2018-06-08T04:43:42.402Z,1006.96
2018-06-08T04:44:42.401Z,1006.96
2018-06-08T04:45:42.395Z,1006.97
2018-06-08T04:46:42.394Z,1006.93
2018-06-08T04:47:42.383Z,1006.89
2018-06-08T04:48:42.384Z,1006.87
2018-06-08T04:49:42.416Z,1006.92
2018-06-08T04:50:42.379Z,1006.94
2018-06-08T04:51:42.393Z,1006.94
2018-06-08T04:52:42.374Z,1006.93
2018-06-08T04:53:42.364Z,1006.94
2018-06-08T04:54:42.381Z,1006.95
2018-06-08T04:55:42.362Z,1006.94
2018-06-08T04:56:42.356Z,1006.94
2018-06-08T04:57:42.379Z,1006.94
2018-06-08T04:58:42.356Z,1006.92
2018-06-08T04:59:42.350Z,1006.90
2018-06-08T05:00:42.342Z,1006.93
2018-06-08T05:01:42.338Z,1006.92
2018-06-08T05:02:42.333Z,1006.90
2018-06-08T05:03:42.331Z,1006.88
2018-06-08T05:04:42.331Z,1006.84
2018-06-08T05:05:42.330Z,1006.85
2018-06-08T05:06:42.324Z,1006.90
2018-06-08T05:07:42.315Z,1006.89
2018-06-08T05:08:42.316Z,1006.86
2018-06-08T05:09:42.353Z,1006.87
2018-06-08T05:10:42.311Z,1006.87
2018-06-08T05:11:42.313Z,1006.92
2018-06-08T05:12:42.308Z,1006.96
2018-06-08T05:13:42.299Z,1006.95
2018-06-08T05:14:42.297Z,1006.97
2018-06-08T05:15:42.292Z,1006.99
2018-06-08T05:16:42.289Z,1007.03
2018-06-08T05:17:42.281Z,1007.07
2018-06-08T05:18:42.283Z,1007.11
2018-06-08T05:19:42.292Z,1007.09
2018-06-08T05:20:42.276Z,1007.10
2018-06-08T05:21:42.276Z,1007.08
2018-06-08T05:22:42.276Z,1007.07
2018-06-08T05:23:42.267Z,1007.09
2018-06-08T05:24:42.308Z,1007.08
2018-06-08T05:25:42.262Z,1007.12
2018-06-08T05:26:42.264Z,1007.12
2018-06-08T05:27:42.256Z,1007.10
2018-06-08T05:28:42.254Z,1007.05
2018-06-08T05:29:42.256Z,1007.09
2018-06-08T05:30:42.244Z,1007.03
2018-06-08T05:31:42.241Z,1007.03
2018-06-08T05:32:42.247Z,1007.01
2018-06-08T05:33:42.237Z,1007.02
2018-06-08T05:34:42.233Z,1007.04
2018-06-08T05:35:42.231Z,1007.04
2018-06-08T05:36:42.223Z,1007.06
2018-06-08T05:37:42.221Z,1007.07
2018-06-08T05:38:42.217Z,1007.05
2018-06-08T05:39:42.217Z,1007.09
2018-06-08T05:40:42.216Z,1007.09
2018-06-08T05:41:42.213Z,1007.08
2018-06-08T05:42:42.207Z,1007.04
2018-06-08T05:43:42.206Z,1007.06
2018-06-08T05:44:42.204Z,1007.09
2018-06-08T05:45:42.203Z,1007.06
2018-06-08T05:46:42.199Z,1007.06
2018-06-08T05:47:42.198Z,1007.06
2018-06-08T05:48:42.195Z,1007.02
2018-06-08T05:49:42.188Z,1007.03
2018-06-08T05:50:42.183Z,1007.00
2018-06-08T05:51:42.184Z,1007.06
2018-06-08T05:52:42.183Z,1007.03
2018-06-08T05:53:42.193Z,1007.06
2018-06-08T05:54:42.186Z,1007.07
2018-06-08T05:55:42.176Z,1007.03
2018-06-08T05:56:42.167Z,1007.05
2018-06-08T05:57:42.166Z,1007.05
2018-06-08T05:58:42.167Z,1007.08
2018-06-08T05:59:42.161Z,1007.11
2018-06-08T06:00:42.162Z,1007.10
2018-06-08T06:01:42.158Z,1007.18
2018-06-08T06:02:42.157Z,1007.16
2018-06-08T06:03:42.163Z,1007.17
2018-06-08T06:04:42.173Z,1007.15
2018-06-08T06:05:42.162Z,1007.21
2018-06-08T06:06:42.151Z,1007.21
2018-06-08T06:07:42.147Z,1007.17
2018-06-08T06:08:42.146Z,1007.18
2018-06-08T06:09:42.143Z,1007.17
2018-06-08T06:10:42.133Z,1007.17
2018-06-08T06:11:42.132Z,1007.18
2018-06-08T06:12:42.133Z,1007.19
2018-06-08T06:13:42.156Z,1007.19
2018-06-08T06:14:42.132Z,1007.23
2018-06-08T06:15:42.162Z,1007.26
2018-06-08T06:16:42.155Z,1007.26
2018-06-08T06:17:42.122Z,1007.31
2018-06-08T06:18:42.123Z,1007.34
2018-06-08T06:19:42.117Z,1007.32
2018-06-08T06:20:42.121Z,1007.33
2018-06-08T06:21:42.119Z,1007.32
2018-06-08T06:22:42.113Z,1007.36
2018-06-08T06:23:42.113Z,1007.37
2018-06-08T06:24:42.107Z,1007.37
2018-06-08T06:25:42.108Z,1007.36
2018-06-08T06:26:42.112Z,1007.43
2018-06-08T06:27:42.108Z,1007.42
2018-06-08T06:28:42.104Z,1007.38
2018-06-08T06:29:42.102Z,1007.40
2018-06-08T06:30:42.100Z,1007.40
2018-06-08T06:31:42.100Z,1007.41
2018-06-08T06:32:42.095Z,1007.40
2018-06-08T06:33:42.086Z,1007.44
2018-06-08T06:34:42.088Z,1007.44
2018-06-08T06:35:42.089Z,1007.39
2018-06-08T06:36:42.082Z,1007.43
2018-06-08T06:37:42.087Z,1007.40
2018-06-08T06:38:42.083Z,1007.45
2018-06-08T06:39:42.125Z,1007.43
2018-06-08T06:40:42.095Z,1007.43
2018-06-08T06:41:42.076Z,1007.42
2018-06-08T06:42:42.086Z,1007.41
2018-06-08T06:43:42.068Z,1007.41
2018-06-08T06:44:42.067Z,1007.44
2018-06-08T06:45:42.063Z,1007.43
2018-06-08T06:46:42.132Z,1007.49
2018-06-08T06:47:42.066Z,1007.47
2018-06-08T06:48:42.064Z,1007.46
2018-06-08T06:49:42.065Z,1007.47
2018-06-08T06:50:42.069Z,1007.45
2018-06-08T06:51:42.074Z,1007.47
2018-06-08T06:52:42.111Z,1007.45
2018-06-08T06:53:42.255Z,1007.44
2018-06-08T06:54:42.050Z,1007.45
2018-06-08T06:55:42.045Z,1007.46
2018-06-08T06:56:42.041Z,1007.46
2018-06-08T06:57:42.044Z,1007.45
2018-06-08T06:58:42.044Z,1007.45
2018-06-08T06:59:42.044Z,1007.45
2018-06-08T07:00:42.047Z,1007.49
2018-06-08T07:01:42.036Z,1007.46
2018-06-08T07:02:42.036Z,1007.50
2018-06-08T07:03:42.037Z,1007.49
2018-06-08T07:04:42.037Z,1007.52
2018-06-08T07:05:42.025Z,1007.54
2018-06-08T07:06:42.031Z,1007.53
2018-06-08T07:07:42.039Z,1007.50
2018-06-08T07:08:42.021Z,1007.54
2018-06-08T07:09:42.023Z,1007.48
2018-06-08T07:10:42.022Z,1007.47
2018-06-08T07:11:42.020Z,1007.45
2018-06-08T07:12:42.061Z,1007.43
2018-06-08T07:13:42.021Z,1007.41
2018-06-08T07:14:42.016Z,1007.41
2018-06-08T07:15:42.012Z,1007.42
2018-06-08T07:16:42.009Z,1007.38
2018-06-08T07:17:42.013Z,1007.43
2018-06-08T07:18:42.068Z,1007.44
2018-06-08T07:19:42.003Z,1007.45
2018-06-08T07:20:42.006Z,1007.45
2018-06-08T07:21:42.001Z,1007.45
2018-06-08T07:22:41.997Z,1007.43
2018-06-08T07:23:41.993Z,1007.47
2018-06-08T07:24:42.043Z,1007.47
2018-06-08T07:25:41.990Z,1007.49
2018-06-08T07:26:41.987Z,1007.46
2018-06-08T07:27:41.994Z,1007.49
2018-06-08T07:28:41.989Z,1007.46
2018-06-08T07:29:41.987Z,1007.46
2018-06-08T07:30:41.983Z,1007.47
2018-06-08T07:31:42.058Z,1007.48
2018-06-08T07:32:41.977Z,1007.51
2018-06-08T07:33:41.977Z,1007.50
2018-06-08T07:34:41.978Z,1007.49
2018-06-08T07:35:41.975Z,1007.48
2018-06-08T07:36:41.976Z,1007.50
2018-06-08T07:37:41.970Z,1007.51
2018-06-08T07:38:41.968Z,1007.50
2018-06-08T07:39:41.966Z,1007.52
2018-06-08T07:40:41.981Z,1007.52
2018-06-08T07:41:41.969Z,1007.48
2018-06-08T07:42:41.969Z,1007.52
2018-06-08T07:43:41.967Z,1007.54
2018-06-08T07:44:41.960Z,1007.53
2018-06-08T07:45:41.957Z,1007.58
2018-06-08T07:46:41.982Z,1007.55
2018-06-08T07:47:41.959Z,1007.53
2018-06-08T07:48:41.962Z,1007.49
2018-06-08T07:49:41.958Z,1007.46
2018-06-08T07:50:41.954Z,1007.48
2018-06-08T07:51:41.962Z,1007.44
2018-06-08T07:52:41.947Z,1007.40
2018-06-08T07:53:42.005Z,1007.41
2018-06-08T07:54:41.952Z,1007.36
2018-06-08T07:55:41.947Z,1007.35
2018-06-08T07:56:41.950Z,1007.33
2018-06-08T07:57:41.944Z,1007.31
2018-06-08T07:58:41.945Z,1007.35
2018-06-08T07:59:41.938Z,1007.32
2018-06-08T08:00:41.943Z,1007.29
2018-06-08T08:01:41.934Z,1007.33
2018-06-08T08:02:41.937Z,1007.32
2018-06-08T08:03:41.952Z,1007.31
2018-06-08T08:04:41.947Z,1007.31
2018-06-08T08:05:41.937Z,1007.31
2018-06-08T08:06:41.934Z,1007.31
2018-06-08T08:07:41.934Z,1007.31
2018-06-08T08:08:41.933Z,1007.34
2018-06-08T08:09:41.930Z,1007.35
2018-06-08T08:10:41.923Z,1007.37
2018-06-08T08:11:41.926Z,1007.40
2018-06-08T08:12:41.922Z,1007.41
2018-06-08T08:13:41.924Z,1007.40
2018-06-08T08:14:41.922Z,1007.44
2018-06-08T08:15:41.925Z,1007.44
2018-06-08T08:16:41.918Z,1007.45
2018-06-08T08:17:41.921Z,1007.46
2018-06-08T08:18:41.932Z,1007.47
2018-06-08T08:19:41.942Z,1007.47
2018-06-08T08:20:41.927Z,1007.49
2018-06-08T08:21:41.919Z,1007.47
2018-06-08T08:22:41.923Z,1007.51
2018-06-08T08:23:41.914Z,1007.51
2018-06-08T08:24:41.923Z,1007.54
2018-06-08T08:25:41.945Z,1007.56
2018-06-08T08:26:41.901Z,1007.60
2018-06-08T08:27:42.838Z,1007.58
2018-06-08T08:28:41.926Z,1007.65
2018-06-08T08:29:41.902Z,1007.63
2018-06-08T08:30:41.907Z,1007.66
2018-06-08T08:31:41.899Z,1007.72
2018-06-08T08:32:42.107Z,1007.73
2018-06-08T08:33:43.129Z,1007.73
2018-06-08T08:34:41.897Z,1007.76
2018-06-08T08:35:41.902Z,1007.79
2018-06-08T08:36:41.907Z,1007.82
2018-06-08T08:37:42.145Z,1007.87
2018-06-08T08:38:41.930Z,1007.83
2018-06-08T08:39:41.988Z,1007.88
2018-06-08T08:40:41.940Z,1007.84
2018-06-08T08:41:41.883Z,1007.85
2018-06-08T08:42:41.884Z,1007.77
2018-06-08T08:43:41.889Z,1007.79
2018-06-08T08:44:41.883Z,1007.74
2018-06-08T08:45:41.892Z,1007.76
2018-06-08T08:46:41.882Z,1007.68
2018-06-08T08:47:41.887Z,1007.74
2018-06-08T08:48:41.881Z,1007.72
2018-06-08T08:49:41.876Z,1007.72
2018-06-08T08:50:41.877Z,1007.77
2018-06-08T08:51:41.887Z,1007.75
2018-06-08T08:52:41.874Z,1007.72
2018-06-08T08:53:41.865Z,1007.70
2018-06-08T08:54:41.865Z,1007.70
2018-06-08T08:55:41.862Z,1007.67
2018-06-08T08:56:41.866Z,1007.70
2018-06-08T08:57:41.864Z,1007.69
2018-06-08T08:58:41.867Z,1007.70
2018-06-08T08:59:41.897Z,1007.72
2018-06-08T09:00:41.856Z,1007.76
2018-06-08T09:01:41.853Z,1007.74
2018-06-08T09:02:41.934Z,1007.74
2018-06-08T09:03:41.881Z,1007.77
2018-06-08T09:04:41.863Z,1007.79
2018-06-08T09:05:41.845Z,1007.81
2018-06-08T09:06:41.842Z,1007.82
2018-06-08T09:07:41.842Z,1007.80
2018-06-08T09:08:42.359Z,1007.83
2018-06-08T09:09:41.837Z,1007.80
2018-06-08T09:10:42.363Z,1007.81
2018-06-08T09:11:41.837Z,1007.80
2018-06-08T09:12:41.851Z,1007.82
2018-06-08T09:13:41.833Z,1007.83
2018-06-08T09:14:41.826Z,1007.84
2018-06-08T09:15:41.830Z,1007.83
2018-06-08T09:16:41.822Z,1007.88
2018-06-08T09:17:41.841Z,1007.86
2018-06-08T09:18:41.822Z,1007.91
2018-06-08T09:19:41.820Z,1007.89
2018-06-08T09:20:41.819Z,1007.96
2018-06-08T09:21:41.816Z,1007.95
2018-06-08T09:22:41.824Z,1007.94
2018-06-08T09:23:41.823Z,1007.95
2018-06-08T09:24:41.832Z,1007.98
2018-06-08T09:25:41.803Z,1008.00
2018-06-08T09:26:41.839Z,1007.98
2018-06-08T09:27:41.840Z,1007.97
2018-06-08T09:28:41.811Z,1007.98
2018-06-08T09:29:41.799Z,1007.96
2018-06-08T09:30:41.826Z,1008.00
2018-06-08T09:31:41.798Z,1007.98
2018-06-08T09:32:41.793Z,1007.97
2018-06-08T09:33:41.816Z,1007.97
2018-06-08T09:34:41.790Z,1007.98
2018-06-08T09:35:41.799Z,1007.94
2018-06-08T09:36:41.779Z,1007.99
2018-06-08T09:37:41.776Z,1008.00
2018-06-08T09:38:41.777Z,1008.00
2018-06-08T09:39:41.792Z,1008.05
2018-06-08T09:40:42.383Z,1008.08
2018-06-08T09:41:41.797Z,1008.07
2018-06-08T09:42:41.766Z,1008.08
2018-06-08T09:43:41.768Z,1008.08
2018-06-08T09:44:41.786Z,1008.14
2018-06-08T09:45:41.776Z,1008.10
2018-06-08T09:46:41.767Z,1008.13
2018-06-08T09:47:41.762Z,1008.17
2018-06-08T09:48:41.753Z,1008.14
2018-06-08T09:49:41.760Z,1008.11
2018-06-08T09:50:41.752Z,1008.18
2018-06-08T09:51:41.746Z,1008.17
2018-06-08T09:52:41.751Z,1008.18
2018-06-08T09:53:41.747Z,1008.20
2018-06-08T09:54:41.786Z,1008.24
2018-06-08T09:55:41.739Z,1008.24
2018-06-08T09:56:41.736Z,1008.26
2018-06-08T09:57:41.737Z,1008.23
2018-06-08T09:58:41.734Z,1008.24
2018-06-08T09:59:41.732Z,1008.26
2018-06-08T10:00:41.738Z,1008.26
2018-06-08T10:01:41.731Z,1008.27
2018-06-08T10:02:41.724Z,1008.27
2018-06-08T10:03:41.720Z,1008.27
2018-06-08T10:04:41.723Z,1008.29
2018-06-08T10:05:41.720Z,1008.28
2018-06-08T10:06:41.715Z,1008.26
2018-06-08T10:07:41.718Z,1008.30
2018-06-08T10:08:41.709Z,1008.27
2018-06-08T10:09:41.710Z,1008.28
2018-06-08T10:10:41.707Z,1008.28
2018-06-08T10:11:41.734Z,1008.26
2018-06-08T10:12:41.702Z,1008.28
2018-06-08T10:13:41.704Z,1008.27
2018-06-08T10:14:41.702Z,1008.24
2018-06-08T10:15:41.700Z,1008.27
2018-06-08T10:16:41.765Z,1008.28
2018-06-08T10:17:41.689Z,1008.28
2018-06-08T10:18:41.688Z,1008.30
2018-06-08T10:19:41.685Z,1008.28
2018-06-08T10:20:41.686Z,1008.28
2018-06-08T10:21:41.684Z,1008.29
2018-06-08T10:22:41.678Z,1008.26
2018-06-08T10:23:41.677Z,1008.27
2018-06-08T10:24:41.689Z,1008.28
2018-06-08T10:25:41.670Z,1008.26
2018-06-08T10:26:41.751Z,1008.24
2018-06-08T10:27:41.690Z,1008.28
2018-06-08T10:28:41.676Z,1008.23
2018-06-08T10:29:41.674Z,1008.24
2018-06-08T10:30:41.658Z,1008.23
2018-06-08T10:31:41.664Z,1008.19
2018-06-08T10:32:41.654Z,1008.20
2018-06-08T10:33:41.710Z,1008.21
2018-06-08T10:34:41.660Z,1008.25
2018-06-08T10:35:41.650Z,1008.24
2018-06-08T10:36:41.648Z,1008.24
2018-06-08T10:37:41.646Z,1008.26
2018-06-08T10:38:41.642Z,1008.27
2018-06-08T10:39:41.641Z,1008.26
2018-06-08T10:40:41.656Z,1008.24
2018-06-08T10:41:41.663Z,1008.28
2018-06-08T10:42:41.643Z,1008.33
2018-06-08T10:43:41.637Z,1008.34
2018-06-08T10:44:41.625Z,1008.39
2018-06-08T10:45:41.624Z,1008.41
2018-06-08T10:46:41.626Z,1008.45
2018-06-08T10:47:41.621Z,1008.44
2018-06-08T10:48:41.621Z,1008.40
2018-06-08T10:49:41.610Z,1008.41
2018-06-08T10:50:41.610Z,1008.41
2018-06-08T10:51:41.609Z,1008.36
2018-06-08T10:52:41.606Z,1008.36
2018-06-08T10:53:41.623Z,1008.35
2018-06-08T10:54:42.471Z,1008.32
2018-06-08T10:55:42.417Z,1008.33
2018-06-08T10:56:43.833Z,1008.32
2018-06-08T10:57:41.722Z,1008.32
2018-06-08T11:04:53.067Z,1008.27
2018-06-08T11:05:52.256Z,1008.27
2018-06-08T11:06:52.221Z,1008.30
2018-06-08T11:07:52.269Z,1008.30
2018-06-08T11:08:52.335Z,1008.33
2018-06-08T11:09:52.192Z,1008.32
2018-06-08T11:10:52.190Z,1008.37
2018-06-08T11:11:52.194Z,1008.41
2018-06-08T11:12:52.186Z,1008.40
2018-06-08T11:13:52.184Z,1008.41
2018-06-08T11:14:52.181Z,1008.37
2018-06-08T11:15:52.179Z,1008.35
2018-06-08T11:16:52.196Z,1008.35
2018-06-08T11:17:52.182Z,1008.28
2018-06-08T11:18:52.189Z,1008.28
2018-06-08T11:19:52.175Z,1008.29
2018-06-08T11:20:52.202Z,1008.30
2018-06-08T11:21:52.166Z,1008.28
2018-06-08T11:22:52.163Z,1008.30
2018-06-08T11:23:52.167Z,1008.33
2018-06-08T11:24:52.148Z,1008.37
2018-06-08T11:25:52.152Z,1008.49
2018-06-08T11:26:52.150Z,1008.50
2018-06-08T11:27:52.162Z,1008.56
2018-06-08T11:28:52.133Z,1008.59
2018-06-08T11:29:52.127Z,1008.59
2018-06-08T11:30:52.120Z,1008.60
2018-06-08T11:31:52.118Z,1008.55
2018-06-08T11:32:52.124Z,1008.56
2018-06-08T11:33:52.111Z,1008.56
2018-06-08T11:34:52.113Z,1008.48
2018-06-08T11:35:52.106Z,1008.37
2018-06-08T11:36:52.099Z,1008.26
2018-06-08T11:37:52.110Z,1008.15
2018-06-08T11:38:52.095Z,1008.10
2018-06-08T11:39:52.090Z,1008.11
2018-06-08T11:40:52.083Z,1008.16
2018-06-08T11:41:53.002Z,1008.12
2018-06-08T11:42:52.077Z,1008.16
2018-06-08T11:43:52.075Z,1008.13
2018-06-08T11:44:52.067Z,1008.21
2018-06-08T11:45:52.115Z,1008.19
2018-06-08T11:46:52.074Z,1008.17
2018-06-08T11:47:53.003Z,1008.19
2018-06-08T11:48:52.052Z,1008.16
2018-06-08T11:49:52.076Z,1008.22
2018-06-08T11:50:52.041Z,1008.17
2018-06-08T11:51:52.044Z,1008.14
2018-06-08T11:52:52.034Z,1008.05
2018-06-08T11:53:52.049Z,1008.02
2018-06-08T11:54:52.033Z,1007.96
2018-06-08T11:55:52.021Z,1007.97
2018-06-08T11:56:52.019Z,1008.03
2018-06-08T11:57:52.015Z,1008.05
2018-06-08T11:58:52.008Z,1008.06
2018-06-08T11:59:52.005Z,1008.08
2018-06-08T12:00:52.006Z,1008.07
2018-06-08T12:01:52.052Z,1008.00
2018-06-08T12:02:52.519Z,1007.80
2018-06-08T12:03:52.509Z,1007.63
2018-06-08T12:04:51.980Z,1007.54
2018-06-08T12:05:51.979Z,1007.52
2018-06-08T12:06:51.983Z,1007.50
2018-06-08T12:07:51.978Z,1007.48
2018-06-08T12:08:51.980Z,1007.55
2018-06-08T12:09:51.993Z,1007.60
2018-06-08T12:10:52.024Z,1007.62
2018-06-08T12:11:51.951Z,1007.58